MSC Lea — 9HA2639 — position and weather

sailwx.info

Track history (hours):
 
Tides and Currents Weather Stations Pressure Air Temp Water Temp Dewpoint Dewpoint Depression Visibility Wind Speed Wind Dir Waves Ship Positions

MSC Lea

Last reported at 2014-Jul-31 21:21 UTC. Time now 2014-Aug-01 13:58 UTC.
Position N 41°21' E 029°13'.

Length 217 m; draft 9.7 m.

Type: Ship (hazmat cat A). MMSI: 215101000.

Date/timePositionNaut miles runAvg speedWind from/ knotsBaromVisibWave heightAir tempDewpointWater temp
2014-Jul-31 21:21N 41°21' E 029°13'2110.8
2014-Jul-31 19:23N 41°02' E 029°00'910.2
2014-Jul-31 18:31N 40°54' E 028°55'1110.8
2014-Jul-31 17:31N 40°49' E 028°43'1 1.4
2014-Jul-31 16:33N 40°48' E 028°44'2 1.6
2014-Jul-31 15:33N 40°47' E 028°46'2 1.5
2014-Jul-31 14:33N 40°47' E 028°48'1 1.1
2014-Jul-31 13:29N 40°47' E 028°49'1 1.0
2014-Jul-31 12:31N 40°47' E 028°50'1 1.0
2014-Jul-31 11:33N 40°48' E 028°52'1 1.0
2014-Jul-31 10:33N 40°49' E 028°52'1 0.7
2014-Jul-31 09:32N 40°49' E 028°53'7 6.7
2014-Jul-31 08:32N 40°50' E 028°44'13411.8
2014-Jul-30 21:08N 39°58' E 026°01'6 9.1
2014-Jul-30 20:30N 39°54' E 025°56'9 8.9
2014-Jul-30 19:30N 39°47' E 025°49'1812.8
2014-Jul-30 18:06N 39°31' E 025°39'2012.7
2014-Jul-30 16:32N 39°13' E 025°28'1612.9
2014-Jul-30 15:18N 38°59' E 025°18'1013.2
2014-Jul-30 14:33N 38°50' E 025°12'2912.9
2014-Jul-30 12:18N 38°24' E 024°55'1012.9
2014-Jul-30 11:33N 38°15' E 024°50'2512.6
2014-Jul-30 09:33N 37°55' E 024°32'1513.2
2014-Jul-30 08:27N 37°45' E 024°19'1212.6
2014-Jul-30 07:30N 37°37' E 024°07'1312.8
2014-Jul-30 06:31N 37°37' E 023°51'8 8.1
2014-Jul-30 05:30N 37°41' E 023°42'1313.4
2014-Jul-30 04:34N 37°53' E 023°37'5 3.9
2014-Jul-30 03:23N 37°57' E 023°35'0 0.0
2014-Jul-30 02:18N 37°57' E 023°35'0 0.0
2014-Jul-30 01:31N 37°57' E 023°35'0 0.0
2014-Jul-30 00:25N 37°57' E 023°35'0 0.0
2014-Jul-29 23:32N 37°57' E 023°35'0 0.0
2014-Jul-29 22:33N 37°57' E 023°35'0 0.0
2014-Jul-29 21:33N 37°57' E 023°35'0 0.0
2014-Jul-29 20:31N 37°57' E 023°35'0 0.0
2014-Jul-29 19:32N 37°57' E 023°35'0 0.0
2014-Jul-29 18:32N 37°57' E 023°35'0 0.0
2014-Jul-29 17:30N 37°57' E 023°35'0 0.0
2014-Jul-29 16:31N 37°57' E 023°35'0 0.0
2014-Jul-29 15:31N 37°57' E 023°35'0 0.0
2014-Jul-29 14:32N 37°57' E 023°35'0 0.0
2014-Jul-29 13:33N 37°57' E 023°35'0 0.0
2014-Jul-29 12:33N 37°57' E 023°35'0 0.0
2014-Jul-29 11:28N 37°57' E 023°35'0 0.0
2014-Jul-29 10:32N 37°57' E 023°35'0 0.0
2014-Jul-29 09:32N 37°57' E 023°35'0 0.0
2014-Jul-29 08:33N 37°57' E 023°35'0 0.0
2014-Jul-29 07:31N 37°57' E 023°35'0 0.0
2014-Jul-29 06:31N 37°57' E 023°35'0 0.0
2014-Jul-29 05:32N 37°57' E 023°35'0 0.0
2014-Jul-29 04:33N 37°57' E 023°35'0 0.0
2014-Jul-29 03:33N 37°57' E 023°35'0 0.0
2014-Jul-29 02:31N 37°57' E 023°35'0 0.0
2014-Jul-29 01:32N 37°57' E 023°35'0 0.0
2014-Jul-29 00:32N 37°57' E 023°35'0 0.0
2014-Jul-28 23:33N 37°57' E 023°35'0 0.0
2014-Jul-28 22:31N 37°57' E 023°35'0 0.0
2014-Jul-28 21:31N 37°57' E 023°35'0 0.0
2014-Jul-28 20:32N 37°57' E 023°35'1 0.6
2014-Jul-28 19:34N 37°57' E 023°35'2 2.2
2014-Jul-28 18:34N 37°55' E 023°35'1 0.6
2014-Jul-28 17:34N 37°55' E 023°35'0 0.3
2014-Jul-28 16:33N 37°55' E 023°35'0 0.4
2014-Jul-28 15:33N 37°54' E 023°35'2 2.0
2014-Jul-28 14:34N 37°52' E 023°34'2 2.1
2014-Jul-28 13:33N 37°51' E 023°32'0 0.0
2014-Jul-28 12:31N 37°51' E 023°32'0 0.0
2014-Jul-28 11:32N 37°51' E 023°32'0 0.0
2014-Jul-28 10:32N 37°51' E 023°32'0 0.0
2014-Jul-28 09:33N 37°51' E 023°32'0 0.0
2014-Jul-28 08:31N 37°51' E 023°32'0 0.0
2014-Jul-28 07:31N 37°51' E 023°32'0 0.1
2014-Jul-28 06:32N 37°51' E 023°32'0 0.1
2014-Jul-28 05:33N 37°51' E 023°32'0 0.0
2014-Jul-28 04:33N 37°51' E 023°32'0 0.1
2014-Jul-28 03:31N 37°51' E 023°32'0 0.0
2014-Jul-28 02:32N 37°51' E 023°32'0 0.0
2014-Jul-28 01:32N 37°51' E 023°32'0 0.1
2014-Jul-28 00:33N 37°51' E 023°32'0 0.0
2014-Jul-27 23:31N 37°51' E 023°32'0 0.0
2014-Jul-27 22:32N 37°51' E 023°32'0 0.0
2014-Jul-27 21:32N 37°51' E 023°32'0 0.0
2014-Jul-27 20:33N 37°51' E 023°32'0 0.0
2014-Jul-27 19:33N 37°51' E 023°32'0 0.1
2014-Jul-27 18:34N 37°51' E 023°32'3 3.1
2014-Jul-27 17:34N 37°52' E 023°36'9 9.1
2014-Jul-27 16:34N 37°45' E 023°43'1414.3
2014-Jul-27 15:33N 37°31' E 023°49'1514.3
2014-Jul-27 14:30N 37°17' E 023°54'1314.1
2014-Jul-27 13:33N 37°04' E 023°58'1414.4
2014-Jul-27 12:33N 36°50' E 024°03'1413.7
2014-Jul-27 11:33N 36°38' E 024°11'1514.4
2014-Jul-27 10:32N 36°30' E 024°26'1414.3
2014-Jul-27 09:33N 36°22' E 024°41'1413.9
2014-Jul-27 08:34N 36°15' E 024°55'1413.5
2014-Jul-27 07:33N 36°07' E 025°09'1313.3
2014-Jul-27 06:33N 36°00' E 025°23'1313.1
2014-Jul-27 05:33N 35°53' E 025°37'1312.8
2014-Jul-27 04:33N 35°46' E 025°50'1412.7
2014-Jul-27 03:29N 35°39' E 026°04'  
2014-Jul-24 09:25N 31°14' E 029°45'0 0.0
2014-Jul-24 08:32N 31°14' E 029°45'0 0.0
2014-Jul-24 07:32N 31°14' E 029°45'0 0.0
2014-Jul-24 06:33N 31°14' E 029°45'0 0.0
2014-Jul-24 05:31N 31°14' E 029°45'0 0.0
2014-Jul-24 04:31N 31°14' E 029°45'0 0.0
2014-Jul-24 00:13N 31°14' E 029°45'0 0.0
2014-Jul-23 21:24N 31°14' E 029°45'0 0.0
2014-Jul-23 18:29N 31°14' E 029°45'0 0.0
2014-Jul-23 16:18N 31°14' E 029°45'3 3.4
2014-Jul-23 15:32N 31°16' E 029°47'2811.5
2014-Jul-23 13:07N 31°38' E 030°07'813.2
2014-Jul-23 12:32N 31°43' E 030°14'1313.1
2014-Jul-23 11:33N 31°51' E 030°26'1312.4
2014-Jul-23 10:32N 31°56' E 030°39'1312.9
2014-Jul-23 09:33N 31°57' E 030°54'1312.8
2014-Jul-23 08:33N 31°58' E 031°09'1312.9
2014-Jul-23 07:33N 31°59' E 031°24'1313.0
2014-Jul-23 06:33N 31°60' E 031°40'1313.1
2014-Jul-23 05:33N 32°00' E 031°55'1313.3
2014-Jul-23 04:33N 32°01' E 032°11'1313.3
2014-Jul-23 03:33N 32°02' E 032°26'1313.3
2014-Jul-23 02:33N 32°03' E 032°42'2813.5
2014-Jul-23 00:30N 32°05' E 033°15'2713.7
2014-Jul-22 22:33N 32°08' E 033°46'1313.5
2014-Jul-22 21:33N 32°04' E 034°01'  
Track history (hours):
 
Tides and Currents Weather Stations Pressure Air Temp Water Temp Dewpoint Dewpoint Depression Visibility Wind Speed Wind Dir Waves Ship Positions

MSC Lea

Last reported at 2014-Jul-31 21:21 UTC. Time now 2014-Aug-01 13:58 UTC.
Position N 41°21' E 029°13'.

Length 217 m; draft 9.7 m.

Type: Ship (hazmat cat A). MMSI: 215101000.

Date/timePositionNaut miles runAvg speedWind from/ knotsBaromVisibWave heightAir tempDewpointWater temp
2014-Jul-31 21:21N 41°21' E 029°13'2110.8
2014-Jul-31 19:23N 41°02' E 029°00'910.2
2014-Jul-31 18:31N 40°54' E 028°55'1110.8
2014-Jul-31 17:31N 40°49' E 028°43'1 1.4
2014-Jul-31 16:33N 40°48' E 028°44'2 1.6
2014-Jul-31 15:33N 40°47' E 028°46'2 1.5
2014-Jul-31 14:33N 40°47' E 028°48'1 1.1
2014-Jul-31 13:29N 40°47' E 028°49'1 1.0
2014-Jul-31 12:31N 40°47' E 028°50'1 1.0
2014-Jul-31 11:33N 40°48' E 028°52'1 1.0
2014-Jul-31 10:33N 40°49' E 028°52'1 0.7
2014-Jul-31 09:32N 40°49' E 028°53'7 6.7
2014-Jul-31 08:32N 40°50' E 028°44'13411.8
2014-Jul-30 21:08N 39°58' E 026°01'6 9.1
2014-Jul-30 20:30N 39°54' E 025°56'9 8.9
2014-Jul-30 19:30N 39°47' E 025°49'1812.8
2014-Jul-30 18:06N 39°31' E 025°39'2012.7
2014-Jul-30 16:32N 39°13' E 025°28'1612.9
2014-Jul-30 15:18N 38°59' E 025°18'1013.2
2014-Jul-30 14:33N 38°50' E 025°12'2912.9
2014-Jul-30 12:18N 38°24' E 024°55'1012.9
2014-Jul-30 11:33N 38°15' E 024°50'2512.6
2014-Jul-30 09:33N 37°55' E 024°32'1513.2
2014-Jul-30 08:27N 37°45' E 024°19'1212.6
2014-Jul-30 07:30N 37°37' E 024°07'1312.8
2014-Jul-30 06:31N 37°37' E 023°51'8 8.1
2014-Jul-30 05:30N 37°41' E 023°42'1313.4
2014-Jul-30 04:34N 37°53' E 023°37'5 3.9
2014-Jul-30 03:23N 37°57' E 023°35'0 0.0
2014-Jul-30 02:18N 37°57' E 023°35'0 0.0
2014-Jul-30 01:31N 37°57' E 023°35'0 0.0
2014-Jul-30 00:25N 37°57' E 023°35'0 0.0
2014-Jul-29 23:32N 37°57' E 023°35'0 0.0
2014-Jul-29 22:33N 37°57' E 023°35'0 0.0
2014-Jul-29 21:33N 37°57' E 023°35'0 0.0
2014-Jul-29 20:31N 37°57' E 023°35'0 0.0
2014-Jul-29 19:32N 37°57' E 023°35'0 0.0
2014-Jul-29 18:32N 37°57' E 023°35'0 0.0
2014-Jul-29 17:30N 37°57' E 023°35'0 0.0
2014-Jul-29 16:31N 37°57' E 023°35'0 0.0
2014-Jul-29 15:31N 37°57' E 023°35'0 0.0
2014-Jul-29 14:32N 37°57' E 023°35'0 0.0
2014-Jul-29 13:33N 37°57' E 023°35'0 0.0
2014-Jul-29 12:33N 37°57' E 023°35'0 0.0
2014-Jul-29 11:28N 37°57' E 023°35'0 0.0
2014-Jul-29 10:32N 37°57' E 023°35'0 0.0
2014-Jul-29 09:32N 37°57' E 023°35'0 0.0
2014-Jul-29 08:33N 37°57' E 023°35'0 0.0
2014-Jul-29 07:31N 37°57' E 023°35'0 0.0
2014-Jul-29 06:31N 37°57' E 023°35'0 0.0
2014-Jul-29 05:32N 37°57' E 023°35'0 0.0
2014-Jul-29 04:33N 37°57' E 023°35'0 0.0
2014-Jul-29 03:33N 37°57' E 023°35'0 0.0
2014-Jul-29 02:31N 37°57' E 023°35'0 0.0
2014-Jul-29 01:32N 37°57' E 023°35'0 0.0
2014-Jul-29 00:32N 37°57' E 023°35'0 0.0
2014-Jul-28 23:33N 37°57' E 023°35'0 0.0
2014-Jul-28 22:31N 37°57' E 023°35'0 0.0
2014-Jul-28 21:31N 37°57' E 023°35'0 0.0
2014-Jul-28 20:32N 37°57' E 023°35'1 0.6
2014-Jul-28 19:34N 37°57' E 023°35'2 2.2
2014-Jul-28 18:34N 37°55' E 023°35'1 0.6
2014-Jul-28 17:34N 37°55' E 023°35'0 0.3
2014-Jul-28 16:33N 37°55' E 023°35'0 0.4
2014-Jul-28 15:33N 37°54' E 023°35'2 2.0
2014-Jul-28 14:34N 37°52' E 023°34'2 2.1
2014-Jul-28 13:33N 37°51' E 023°32'0 0.0
2014-Jul-28 12:31N 37°51' E 023°32'0 0.0
2014-Jul-28 11:32N 37°51' E 023°32'0 0.0
2014-Jul-28 10:32N 37°51' E 023°32'0 0.0
2014-Jul-28 09:33N 37°51' E 023°32'0 0.0
2014-Jul-28 08:31N 37°51' E 023°32'0 0.0
2014-Jul-28 07:31N 37°51' E 023°32'0 0.1
2014-Jul-28 06:32N 37°51' E 023°32'0 0.1
2014-Jul-28 05:33N 37°51' E 023°32'0 0.0
2014-Jul-28 04:33N 37°51' E 023°32'0 0.1
2014-Jul-28 03:31N 37°51' E 023°32'0 0.0
2014-Jul-28 02:32N 37°51' E 023°32'0 0.0
2014-Jul-28 01:32N 37°51' E 023°32'0 0.1
2014-Jul-28 00:33N 37°51' E 023°32'0 0.0
2014-Jul-27 23:31N 37°51' E 023°32'0 0.0
2014-Jul-27 22:32N 37°51' E 023°32'0 0.0
2014-Jul-27 21:32N 37°51' E 023°32'0 0.0
2014-Jul-27 20:33N 37°51' E 023°32'0 0.0
2014-Jul-27 19:33N 37°51' E 023°32'0 0.1
2014-Jul-27 18:34N 37°51' E 023°32'3 3.1
2014-Jul-27 17:34N 37°52' E 023°36'9 9.1
2014-Jul-27 16:34N 37°45' E 023°43'1414.3
2014-Jul-27 15:33N 37°31' E 023°49'1514.3
2014-Jul-27 14:30N 37°17' E 023°54'1314.1
2014-Jul-27 13:33N 37°04' E 023°58'1414.4
2014-Jul-27 12:33N 36°50' E 024°03'1413.7
2014-Jul-27 11:33N 36°38' E 024°11'1514.4
2014-Jul-27 10:32N 36°30' E 024°26'1414.3
2014-Jul-27 09:33N 36°22' E 024°41'1413.9
2014-Jul-27 08:34N 36°15' E 024°55'1413.5
2014-Jul-27 07:33N 36°07' E 025°09'1313.3
2014-Jul-27 06:33N 36°00' E 025°23'1313.1
2014-Jul-27 05:33N 35°53' E 025°37'1312.8
2014-Jul-27 04:33N 35°46' E 025°50'1412.7
2014-Jul-27 03:29N 35°39' E 026°04'  
2014-Jul-24 09:25N 31°14' E 029°45'0 0.0
2014-Jul-24 08:32N 31°14' E 029°45'0 0.0
2014-Jul-24 07:32N 31°14' E 029°45'0 0.0
2014-Jul-24 06:33N 31°14' E 029°45'0 0.0
2014-Jul-24 05:31N 31°14' E 029°45'0 0.0
2014-Jul-24 04:31N 31°14' E 029°45'0 0.0
2014-Jul-24 00:13N 31°14' E 029°45'0 0.0
2014-Jul-23 21:24N 31°14' E 029°45'0 0.0
2014-Jul-23 18:29N 31°14' E 029°45'0 0.0
2014-Jul-23 16:18N 31°14' E 029°45'3 3.4
2014-Jul-23 15:32N 31°16' E 029°47'2811.5
2014-Jul-23 13:07N 31°38' E 030°07'813.2
2014-Jul-23 12:32N 31°43' E 030°14'1313.1
2014-Jul-23 11:33N 31°51' E 030°26'1312.4
2014-Jul-23 10:32N 31°56' E 030°39'1312.9
2014-Jul-23 09:33N 31°57' E 030°54'1312.8
2014-Jul-23 08:33N 31°58' E 031°09'1312.9
2014-Jul-23 07:33N 31°59' E 031°24'1313.0
2014-Jul-23 06:33N 31°60' E 031°40'1313.1
2014-Jul-23 05:33N 32°00' E 031°55'1313.3
2014-Jul-23 04:33N 32°01' E 032°11'1313.3
2014-Jul-23 03:33N 32°02' E 032°26'1313.3
2014-Jul-23 02:33N 32°03' E 032°42'2813.5
2014-Jul-23 00:30N 32°05' E 033°15'2713.7
2014-Jul-22 22:33N 32°08' E 033°46'1313.5
2014-Jul-22 21:33N 32°04' E 034°01'  

Dump ship's entire track history